createdAt,value
2024-01-05T00:09:09.832Z,69.00
2024-01-05T00:19:11.503Z,68.90
2024-01-05T00:29:13.044Z,69.70
2024-01-05T00:39:14.569Z,68.90
2024-01-05T00:49:16.091Z,68.90
2024-01-05T00:59:17.536Z,68.80
2024-01-05T01:09:19.010Z,68.80
2024-01-05T01:19:20.638Z,68.70
2024-01-05T01:29:22.172Z,68.70
2024-01-05T01:39:24.736Z,68.60
2024-01-05T01:49:26.255Z,68.50
2024-01-05T01:59:27.740Z,68.60
2024-01-05T02:09:29.336Z,68.50
2024-01-05T02:19:31.046Z,68.20
2024-01-05T02:29:32.561Z,68.20
2024-01-05T02:39:34.057Z,68.30
2024-01-05T02:49:35.650Z,68.30
2024-01-05T02:59:37.147Z,68.30
2024-01-05T03:09:38.636Z,68.30
2024-01-05T03:19:40.150Z,68.10
2024-01-05T03:29:41.610Z,68.10
2024-01-05T03:39:43.129Z,68.10
2024-01-05T03:49:44.715Z,68.00
2024-01-05T03:59:46.247Z,68.20
2024-01-05T04:09:47.696Z,68.00
2024-01-05T04:19:49.200Z,67.90
2024-01-05T04:29:50.683Z,67.80
2024-01-05T04:39:52.135Z,67.70
2024-01-05T04:49:53.638Z,67.70
2024-01-05T04:59:55.149Z,67.80
2024-01-05T05:09:56.629Z,67.70
2024-01-05T05:19:58.094Z,67.80
2024-01-05T05:29:59.535Z,67.70
2024-01-05T05:40:01.008Z,67.70
2024-01-05T05:50:02.464Z,67.60
2024-01-05T06:00:03.929Z,67.40
2024-01-05T06:10:05.416Z,67.40
2024-01-05T06:20:06.897Z,67.10
2024-01-05T06:30:08.432Z,66.90
2024-01-05T06:40:09.924Z,67.00
2024-01-05T06:50:11.544Z,66.90
2024-01-05T07:00:13.103Z,67.00
2024-01-05T07:10:14.681Z,67.10
2024-01-05T07:20:16.196Z,63.10
2024-01-05T07:30:17.657Z,60.60
2024-01-05T07:40:19.130Z,60.80
2024-01-05T07:50:20.543Z,60.10
2024-01-05T08:00:21.993Z,59.40
2024-01-05T08:10:23.461Z,59.20
2024-01-05T08:20:24.947Z,59.00
2024-01-05T08:30:26.459Z,55.80
2024-01-05T08:40:28.042Z,68.30
2024-01-05T08:50:29.503Z,75.60
2024-01-05T09:00:31.069Z,76.90
2024-01-05T09:20:34.475Z,79.40
2024-01-05T09:30:36.022Z,81.40
2024-01-05T09:40:37.530Z,81.60
2024-01-05T09:50:39.214Z,78.10
2024-01-05T10:00:40.857Z,79.80
2024-01-05T10:10:42.344Z,80.20
2024-01-05T10:20:43.791Z,80.60
2024-01-05T10:30:45.300Z,80.10
2024-01-05T10:40:46.790Z,80.20
2024-01-05T10:50:48.252Z,79.10
2024-01-05T11:00:49.899Z,79.50
2024-01-05T11:10:51.410Z,79.80
2024-01-05T11:20:52.870Z,79.60
2024-01-05T11:30:54.433Z,79.00
2024-01-05T11:40:55.975Z,79.00
2024-01-05T11:50:57.441Z,78.40
2024-01-05T12:00:59.080Z,79.50
2024-01-05T12:11:00.682Z,78.50
2024-01-05T12:21:02.272Z,77.10
2024-01-05T12:31:03.841Z,77.20
2024-01-05T12:41:05.425Z,77.60
2024-01-05T12:51:06.923Z,77.90
2024-01-05T13:01:08.458Z,77.90
2024-01-05T13:11:09.904Z,78.20
2024-01-05T13:21:11.487Z,78.20
2024-01-05T13:31:13.148Z,78.20
2024-01-05T13:41:16.476Z,78.40
2024-01-05T13:51:17.943Z,77.70
2024-01-05T14:01:19.424Z,77.60
2024-01-05T14:11:20.875Z,77.80
2024-01-05T14:21:22.460Z,77.90
2024-01-05T14:31:23.994Z,77.70
2024-01-05T14:41:29.090Z,78.50
2024-01-05T14:51:31.232Z,78.30
2024-01-05T15:01:32.723Z,78.70
2024-01-05T15:11:34.202Z,79.20
2024-01-05T15:21:35.703Z,79.10
2024-01-05T15:31:37.221Z,79.10
2024-01-05T15:41:38.709Z,78.70
2024-01-05T15:51:40.142Z,79.10
2024-01-05T16:01:41.620Z,78.90
2024-01-05T16:11:43.125Z,79.30
2024-01-05T16:21:44.609Z,79.10
2024-01-05T16:31:46.157Z,79.40
2024-01-05T16:41:47.669Z,79.20
2024-01-05T16:51:49.169Z,78.70
2024-01-05T17:01:50.657Z,80.10
2024-01-05T17:11:54.180Z,79.40
2024-01-05T17:21:57.121Z,79.30
2024-01-05T17:31:58.565Z,79.30
2024-01-05T17:42:00.005Z,79.00
2024-01-05T17:52:01.458Z,79.10
2024-01-05T18:02:02.887Z,79.00
2024-01-05T18:12:04.401Z,79.10
2024-01-05T18:22:05.856Z,78.70
2024-01-05T18:32:07.290Z,77.80
2024-01-05T18:42:08.786Z,77.90
2024-01-05T18:52:10.268Z,77.50
2024-01-05T19:02:11.699Z,77.30
2024-01-05T19:12:13.185Z,78.00
2024-01-05T19:22:14.664Z,83.80
2024-01-05T19:32:16.112Z,86.00
2024-01-05T19:52:19.524Z,88.50
2024-01-05T20:02:21.032Z,90.40
2024-01-05T20:12:22.563Z,90.60
2024-01-05T20:22:24.120Z,91.00
2024-01-05T20:32:25.562Z,91.40
2024-01-05T20:42:27.134Z,91.70
2024-01-05T20:52:28.610Z,92.00
2024-01-05T21:02:30.038Z,92.20
2024-01-05T21:12:31.598Z,92.50
2024-01-05T21:22:33.080Z,92.70
2024-01-05T21:32:34.603Z,92.80
2024-01-05T21:42:36.094Z,93.00
2024-01-05T21:52:37.632Z,93.10
2024-01-05T22:02:39.072Z,93.30
2024-01-05T22:12:40.650Z,93.40
2024-01-05T22:22:42.102Z,93.50
2024-01-05T22:32:43.605Z,93.50
2024-01-05T22:42:45.190Z,93.60
2024-01-05T22:52:46.676Z,93.70
2024-01-05T23:02:48.135Z,93.80
2024-01-05T23:12:49.582Z,93.80
2024-01-05T23:22:51.046Z,93.90
2024-01-05T23:32:52.586Z,94.00
2024-01-05T23:42:54.171Z,94.10
2024-01-05T23:52:55.668Z,94.10
